Time;durP1;ratioP1;P1;durP2;ratioP2;P2;SDS_P1;SDS_P2;PMS_P1;PMS_P2;Temp;Humidity;BMP_temperature;BMP_pressure;BME280_temperature;BME280_humidity;BME280_pressure;Samples;Min_cycle;Max_cycle;Signal;HPM_P1;HPM_P2
2021/03/02 00:01:47;;;;;;;26.77;9.38;;;4.40;99.90;;;;;;5055619;28;20053;-75
2021/03/02 00:04:12;;;;;;;23.42;10.10;;;4.50;99.90;;;;;;5074531;28;20052;-75
2021/03/02 00:06:38;;;;;;;28.35;8.93;;;4.40;99.90;;;;;;5073331;28;20024;-75
2021/03/02 00:09:06;;;;;;;25.08;9.38;;;4.40;99.90;;;;;;5055394;28;20091;-75
2021/03/02 00:11:36;;;;;;;31.88;10.10;;;4.40;99.90;;;;;;5074348;28;20505;-75
2021/03/02 00:14:02;;;;;;;26.35;9.43;;;4.40;99.90;;;;;;5073865;28;20157;-75
2021/03/02 00:16:28;;;;;;;26.75;9.70;;;4.40;99.90;;;;;;5093604;28;20497;-75
2021/03/02 00:19:08;;;;;;;27.38;10.02;;;4.30;99.90;;;;;;5066114;28;20069;-75
2021/03/02 00:21:39;;;;;;;21.73;8.52;;;4.30;99.90;;;;;;5073974;28;20108;-75
2021/03/02 00:24:08;;;;;;;28.50;10.73;;;4.30;99.90;;;;;;5084144;28;20478;-75
2021/03/02 00:26:36;;;;;;;;;;;4.20;99.90;;;;;;5073692;28;20044;-75
2021/03/02 00:29:04;;;;;;;25.80;10.07;;;4.30;99.90;;;;;;5084202;28;19908;-75
2021/03/02 00:31:34;;;;;;;24.60;10.07;;;4.30;99.90;;;;;;5074880;28;20077;-75
2021/03/02 00:34:00;;;;;;;27.52;9.77;;;4.20;99.90;;;;;;5085026;28;20028;-75
2021/03/02 00:36:26;;;;;;;25.98;8.82;;;4.20;99.90;;;;;;5055802;28;20028;-74
2021/03/02 00:38:51;;;;;;;27.38;9.00;;;4.20;99.90;;;;;;5064974;28;20030;-75
2021/03/02 00:41:18;;;;;;;26.35;8.88;;;4.20;99.90;;;;;;5075600;28;20023;-74
2021/03/02 00:43:43;;;;;;;30.05;9.80;;;4.20;99.90;;;;;;5070560;28;20033;-74
2021/03/02 00:46:09;;;;;;;30.02;9.93;;;4.10;99.90;;;;;;5059536;28;20482;-74
2021/03/02 00:48:38;;;;;;;24.67;9.43;;;4.10;99.90;;;;;;5075290;23;20040;-74
2021/03/02 00:51:04;;;;;;;32.75;9.52;;;4.10;99.90;;;;;;5094012;22;20020;-74
2021/03/02 00:53:30;;;;;;;26.10;9.85;;;4.00;99.90;;;;;;5095448;28;20032;-73
2021/03/02 00:55:55;;;;;;;27.23;9.77;;;4.00;99.90;;;;;;5078795;28;20027;-74
2021/03/02 00:58:21;;;;;;;24.52;8.88;;;4.10;99.90;;;;;;5079495;28;20111;-75
2021/03/02 01:00:46;;;;;;;24.30;8.98;;;4.10;99.90;;;;;;5079661;28;20032;-75
2021/03/02 01:03:12;;;;;;;27.90;10.38;;;4.00;99.90;;;;;;5078535;28;20020;-74
2021/03/02 01:05:38;;;;;;;28.35;9.75;;;3.90;99.90;;;;;;5127761;22;20047;-74
2021/03/02 01:08:04;;;;;;;24.10;8.73;;;3.90;99.90;;;;;;5116661;28;20031;-73
2021/03/02 01:10:30;;;;;;;23.35;9.23;;;3.90;99.90;;;;;;5117324;28;20525;-74
2021/03/02 01:12:55;;;;;;;26.25;9.35;;;3.90;99.90;;;;;;5116420;28;20094;-74
2021/03/02 01:15:21;;;;;;;28.58;11.77;;;3.90;99.90;;;;;;5115718;28;20020;-74
2021/03/02 01:17:47;;;;;;;29.90;9.65;;;3.90;99.90;;;;;;5117435;28;20487;-74
2021/03/02 01:20:13;;;;;;;26.75;9.80;;;3.80;99.90;;;;;;5116326;28;20027;-74
2021/03/02 01:22:39;;;;;;;29.70;10.48;;;3.80;99.90;;;;;;5116371;28;20370;-74
2021/03/02 01:25:10;;;;;;;30.05;10.43;;;3.80;99.90;;;;;;5116157;28;20031;-74
2021/03/02 01:27:35;;;;;;;30.80;10.15;;;3.80;99.90;;;;;;5117036;28;20512;-74
2021/03/02 01:30:01;;;;;;;27.17;10.02;;;3.70;99.90;;;;;;5116265;28;20043;-74
2021/03/02 01:32:26;;;;;;;27.92;9.45;;;3.70;99.90;;;;;;5114773;28;20477;-74
2021/03/02 01:34:52;;;;;;;27.92;10.85;;;3.70;99.90;;;;;;5114394;28;20073;-74
2021/03/02 01:37:17;;;;;;;26.63;8.73;;;3.60;99.90;;;;;;5114992;28;20019;-74
2021/03/02 01:39:43;;;;;;;31.80;9.10;;;3.60;99.90;;;;;;5115771;28;20035;-74
2021/03/02 01:42:08;;;;;;;26.33;9.20;;;3.50;99.90;;;;;;5116113;28;20028;-74
2021/03/02 01:44:34;;;;;;;24.88;8.52;;;3.60;99.90;;;;;;5115674;28;20043;-74
2021/03/02 01:47:00;;;;;;;28.45;10.50;;;3.50;99.90;;;;;;5116371;28;20048;-74
2021/03/02 01:49:28;;;;;;;29.05;10.82;;;3.50;99.90;;;;;;5116429;28;20039;-74
2021/03/02 01:51:54;;;;;;;25.30;9.18;;;5.30;99.90;;;;;;5116813;28;20019;-74
2021/03/02 01:54:19;;;;;;;30.38;10.50;;;3.50;99.90;;;;;;5116352;28;20082;-74
2021/03/02 01:56:45;;;;;;;28.33;9.70;;;3.40;99.90;;;;;;5124408;22;20047;-74
2021/03/02 01:59:12;;;;;;;30.27;10.63;;;3.40;99.90;;;;;;5094416;28;20020;-74
2021/03/02 02:01:38;;;;;;;26.67;9.27;;;3.30;99.90;;;;;;5110789;22;20159;-74
2021/03/02 02:04:21;;;;;;;27.83;8.95;;;3.30;99.90;;;;;;5094049;28;20382;-74
2021/03/02 02:06:51;;;;;;;33.13;10.23;;;3.30;99.90;;;;;;5077926;28;20073;-74
2021/03/02 02:09:32;;;;;;;27.65;9.32;;;3.30;99.90;;;;;;5077639;28;20055;-74
2021/03/02 02:12:20;;;;;;;28.48;10.82;;;3.20;99.90;;;;;;5095567;28;20193;-75
2021/03/02 02:15:08;;;;;;;27.60;9.63;;;3.10;99.90;;;;;;5095683;28;20382;-74
2021/03/02 02:17:40;;;;;;;25.70;9.20;;;3.10;99.90;;;;;;5095421;28;20531;-74
2021/03/02 02:20:15;;;;;;;29.23;9.93;;;3.10;99.90;;;;;;5095049;28;20028;-74
2021/03/02 02:22:57;;;;;;;23.38;9.18;;;3.10;99.90;;;;;;5077331;28;20020;-74
2021/03/02 02:25:41;;;;;;;33.40;10.98;;;3.10;99.90;;;;;;5095604;28;20032;-74
2021/03/02 02:28:09;;;;;;;31.00;10.02;;;3.00;99.90;;;;;;5112784;22;21252;-73
2021/03/02 02:30:37;;;;;;;27.63;10.07;;;3.00;99.90;;;;;;5114423;28;20032;-74
2021/03/02 02:33:04;;;;;;;31.27;10.88;;;3.00;99.90;;;;;;5115969;28;20396;-74
2021/03/02 02:35:31;;;;;;;31.17;11.68;;;3.00;99.90;;;;;;5114803;28;20029;-73
2021/03/02 02:37:58;;;;;;;30.65;10.68;;;2.90;99.90;;;;;;5143877;22;20048;-74
2021/03/02 02:40:24;;;;;;;34.63;10.63;;;2.90;99.90;;;;;;5076794;28;20454;-74
2021/03/02 02:42:52;;;;;;;34.20;11.18;;;2.90;99.90;;;;;;5076987;28;20024;-74
2021/03/02 02:45:19;;;;;;;30.33;10.02;;;2.90;99.90;;;;;;5076905;28;20052;-74
2021/03/02 02:47:47;;;;;;;33.83;10.40;;;2.80;99.90;;;;;;5076835;28;20389;-73
2021/03/02 02:50:14;;;;;;;34.60;11.32;;;2.80;99.90;;;;;;5094438;28;20031;-74
2021/03/02 02:52:40;;;;;;;28.70;10.82;;;2.80;99.90;;;;;;5077066;28;20026;-74
2021/03/02 02:55:07;;;;;;;33.33;10.43;;;2.80;99.90;;;;;;5094597;28;20478;-73
2021/03/02 02:57:39;;;;;;;33.78;11.07;;;2.70;99.90;;;;;;5095144;28;20028;-74
2021/03/02 03:00:05;;;;;;;27.20;9.80;;;2.70;99.90;;;;;;5094820;28;20532;-74
2021/03/02 03:02:33;;;;;;;31.23;10.68;;;2.70;99.90;;;;;;5076468;28;20389;-74
2021/03/02 03:05:08;;;;;;;36.50;12.10;;;2.60;99.90;;;;;;5076433;28;20051;-74
2021/03/02 03:07:39;;;;;;;29.70;10.60;;;2.60;99.90;;;;;;5092302;28;20016;-74
2021/03/02 03:10:07;;;;;;;32.42;11.38;;;2.60;99.90;;;;;;5076571;28;20028;-74
2021/03/02 03:12:38;;;;;;;30.50;10.93;;;2.60;99.90;;;;;;5109191;22;20067;-74
2021/03/02 03:15:08;;;;;;;30.98;11.10;;;2.40;99.90;;;;;;5128378;22;20049;-73
2021/03/02 03:17:39;;;;;;;29.15;10.82;;;2.50;99.90;;;;;;5115259;28;20076;-73
2021/03/02 03:20:07;;;;;;;32.92;10.23;;;2.50;99.90;;;;;;5115006;28;20062;-73
2021/03/02 03:22:34;;;;;;;33.05;10.70;;;2.40;99.90;;;;;;5115712;22;20072;-74
2021/03/02 03:25:01;;;;;;;28.55;10.10;;;2.40;99.90;;;;;;5072990;28;20104;-74
2021/03/02 03:27:30;;;;;;;35.97;11.15;;;2.30;99.90;;;;;;5105521;22;20048;-74
2021/03/02 03:29:58;;;;;;;30.83;9.75;;;2.30;99.90;;;;;;5094645;28;20043;-74
2021/03/02 03:32:23;;;;;;;29.25;10.75;;;2.20;99.90;;;;;;5143737;22;20508;-74
2021/03/02 03:34:50;;;;;;;32.42;11.48;;;2.20;99.90;;;;;;5093847;28;20024;-74
2021/03/02 03:37:16;;;;;;;36.45;11.85;;;2.20;99.90;;;;;;5076083;28;20039;-75
2021/03/02 03:39:43;;;;;;;32.33;10.15;;;2.10;99.90;;;;;;5094129;28;20020;-74
2021/03/02 03:42:08;;;;;;;32.47;10.82;;;2.10;99.90;;;;;;5094141;28;20028;-74
2021/03/02 03:44:34;;;;;;;35.85;11.57;;;2.10;99.90;;;;;;5068804;28;20021;-75
2021/03/02 03:47:02;;;;;;;33.55;10.52;;;2.10;99.90;;;;;;5085849;28;20027;-74
2021/03/02 03:49:28;;;;;;;34.20;10.80;;;2.10;99.90;;;;;;5076132;28;20020;-74
2021/03/02 03:51:55;;;;;;;36.47;10.80;;;2.10;99.90;;;;;;5094247;28;20028;-74
2021/03/02 03:54:23;;;;;;;31.83;10.98;;;2.10;99.90;;;;;;5111573;23;20036;-75
2021/03/02 03:56:51;;;;;;;38.13;12.88;;;2.10;99.90;;;;;;5114533;28;20020;-75
2021/03/02 03:59:18;;;;;;;33.03;11.30;;;2.10;99.90;;;;;;5114656;28;20034;-75
2021/03/02 04:01:45;;;;;;;36.72;11.73;;;2.10;99.90;;;;;;5113174;28;20089;-75
2021/03/02 04:04:11;;;;;;;38.95;12.68;;;2.00;99.90;;;;;;5104942;28;20032;-75
2021/03/02 04:06:37;;;;;;;37.83;12.60;;;2.10;99.90;;;;;;5094616;28;20074;-75
2021/03/02 04:09:04;;;;;;;33.63;11.30;;;2.10;99.90;;;;;;5094533;28;20093;-75
2021/03/02 04:11:30;;;;;;;35.13;11.68;;;2.10;99.90;;;;;;5097536;28;20412;-74
2021/03/02 04:14:00;;;;;;;33.45;10.55;;;2.10;99.90;;;;;;5109956;22;20044;-74
2021/03/02 04:16:25;;;;;;;34.50;11.02;;;2.00;99.90;;;;;;5093885;28;20086;-74
2021/03/02 04:18:51;;;;;;;32.03;10.25;;;2.00;99.90;;;;;;5117789;23;20060;-74
2021/03/02 04:21:19;;;;;;;37.20;11.05;;;2.00;99.90;;;;;;5097758;28;20077;-74
2021/03/02 04:23:45;;;;;;;36.00;12.38;;;2.00;99.90;;;;;;5097651;28;20074;-74
2021/03/02 04:26:10;;;;;;;30.75;10.77;;;2.00;99.90;;;;;;5097585;28;20489;-74
2021/03/02 04:28:38;;;;;;;36.22;10.98;;;2.00;99.90;;;;;;5097356;28;20024;-74
2021/03/02 04:31:04;;;;;;;31.70;10.80;;;2.80;99.90;;;;;;5097821;28;20141;-74
2021/03/02 04:33:30;;;;;;;42.58;13.35;;;2.00;99.90;;;;;;5079091;28;20051;-74
2021/03/02 04:35:56;;;;;;;31.23;10.75;;;2.00;99.90;;;;;;5098476;28;20012;-74
2021/03/02 04:38:21;;;;;;;39.97;12.48;;;1.90;99.90;;;;;;5097547;28;20027;-74
2021/03/02 04:40:47;;;;;;;39.72;12.02;;;1.90;99.90;;;;;;5098231;28;20024;-74
2021/03/02 04:43:12;;;;;;;39.33;11.50;;;1.90;99.90;;;;;;5124516;22;20036;-74
2021/03/02 04:45:38;;;;;;;36.58;11.85;;;1.90;99.90;;;;;;5128652;22;20122;-73
2021/03/02 04:48:04;;;;;;;42.42;12.15;;;1.90;99.90;;;;;;5079479;28;20027;-73
2021/03/02 04:50:29;;;;;;;44.28;13.35;;;1.80;99.90;;;;;;5078824;28;20032;-73
2021/03/02 04:52:55;;;;;;;32.20;10.98;;;1.80;99.90;;;;;;5097604;28;20059;-74
2021/03/02 04:55:20;;;;;;;37.55;12.02;;;1.80;99.90;;;;;;5078875;28;20132;-74
2021/03/02 04:57:46;;;;;;;37.70;12.70;;;1.80;99.90;;;;;;5078761;28;20103;-73
2021/03/02 05:00:12;;;;;;;38.72;12.48;;;1.70;99.90;;;;;;5096881;28;20055;-73
2021/03/02 05:02:38;;;;;;;35.63;12.38;;;1.80;99.90;;;;;;5096755;28;20032;-74
2021/03/02 05:05:04;;;;;;;37.92;12.65;;;1.80;99.90;;;;;;5097073;28;20106;-74
2021/03/02 05:07:30;;;;;;;34.40;12.40;;;1.80;99.90;;;;;;5078827;28;20509;-74
2021/03/02 05:09:56;;;;;;;39.67;14.70;;;1.80;99.90;;;;;;5096561;28;20024;-74
2021/03/02 05:12:21;;;;;;;37.65;12.55;;;1.80;99.90;;;;;;5096902;28;20023;-73
2021/03/02 05:14:47;;;;;;;36.15;11.65;;;1.80;99.90;;;;;;5096547;28;20072;-74
2021/03/02 05:17:13;;;;;;;39.80;12.95;;;1.80;99.90;;;;;;5078557;28;20023;-73
2021/03/02 05:19:38;;;;;;;43.03;14.05;;;1.80;99.90;;;;;;5096188;28;20023;-73
2021/03/02 05:22:04;;;;;;;39.33;12.65;;;1.70;99.90;;;;;;5096373;28;20039;-73
2021/03/02 05:24:30;;;;;;;43.30;13.43;;;1.70;99.90;;;;;;5096409;28;20016;-73
2021/03/02 05:26:55;;;;;;;37.05;12.20;;;1.70;99.90;;;;;;5097058;28;20019;-73
2021/03/02 05:29:21;;;;;;;40.40;13.93;;;1.60;99.90;;;;;;5097076;28;20016;-74
2021/03/02 05:31:46;;;;;;;39.95;12.23;;;1.60;99.90;;;;;;5077000;28;20059;-74
2021/03/02 05:34:13;;;;;;;38.58;12.55;;;1.60;99.90;;;;;;5096685;28;20016;-74
2021/03/02 05:36:39;;;;;;;38.03;11.88;;;1.50;99.90;;;;;;5097388;28;20046;-74
2021/03/02 05:39:05;;;;;;;49.53;14.75;;;1.50;99.90;;;;;;5078101;28;20016;-74
2021/03/02 05:41:33;;;;;;;33.47;11.98;;;1.50;99.90;;;;;;5095913;28;20031;-74
2021/03/02 05:43:59;;;;;;;37.30;12.45;;;1.50;99.90;;;;;;5095688;28;20024;-74
2021/03/02 05:46:26;;;;;;;38.10;13.00;;;1.40;99.90;;;;;;5095804;28;20040;-74
2021/03/02 05:48:51;;;;;;;37.85;12.73;;;1.50;99.90;;;;;;5095741;28;20549;-74
2021/03/02 05:51:20;;;;;;;42.90;13.43;;;1.40;99.90;;;;;;5077506;28;20114;-74
2021/03/02 05:53:46;;;;;;;41.70;13.60;;;1.20;99.90;;;;;;5095539;28;20401;-74
2021/03/02 05:56:12;;;;;;;41.00;13.00;;;1.40;99.90;;;;;;5077941;28;20016;-74
2021/03/02 05:58:38;;;;;;;42.08;13.90;;;1.40;99.90;;;;;;5077233;28;20024;-74
2021/03/02 06:01:04;;;;;;;43.13;12.68;;;1.40;99.90;;;;;;5095147;28;20425;-73
2021/03/02 06:03:37;;;;;;;37.67;13.18;;;1.40;99.90;;;;;;5095634;28;20023;-74
2021/03/02 06:06:04;;;;;;;41.53;14.45;;;1.40;99.90;;;;;;5095818;28;20035;-74
2021/03/02 06:08:29;;;;;;;43.80;14.45;;;1.40;99.90;;;;;;5111362;22;20044;-74
2021/03/02 06:10:55;;;;;;;46.63;14.23;;;1.40;99.90;;;;;;5114972;28;20040;-73
2021/03/02 06:13:28;;;;;;;48.03;15.63;;;1.40;99.90;;;;;;5114735;28;20538;-73
2021/03/02 06:15:57;;;;;;;44.38;13.88;;;1.40;99.90;;;;;;5117249;22;20131;-75
2021/03/02 06:18:24;;;;;;;45.53;13.98;;;1.40;99.90;;;;;;5076963;28;20474;-73
2021/03/02 06:20:51;;;;;;;41.17;13.43;;;1.40;99.90;;;;;;5095986;28;20082;-75
2021/03/02 06:23:30;;;;;;;39.75;12.95;;;1.40;99.90;;;;;;5077244;28;20386;-76
2021/03/02 06:26:07;;;;;;;;;;;1.40;99.90;;;;;;5077391;28;20512;-73
2021/03/02 06:28:41;;;;;;;39.55;12.20;;;1.40;99.90;;;;;;5076801;28;20385;-73
2021/03/02 06:31:28;;;;;;;42.75;13.45;;;1.40;99.90;;;;;;5094347;28;20059;-76
2021/03/02 06:34:12;;;;;;;43.92;13.68;;;1.40;99.90;;;;;;5095235;28;20020;-75
2021/03/02 06:36:53;;;;;;;39.95;13.18;;;1.40;99.90;;;;;;5079117;28;20564;-74
2021/03/02 06:39:27;;;;;;;37.35;12.88;;;1.40;99.90;;;;;;5068439;28;20058;-74
2021/03/02 06:42:21;;;;;;;39.67;12.63;;;1.40;99.90;;;;;;5076100;28;20122;-74
2021/03/02 06:44:51;;;;;;;42.40;12.70;;;1.40;99.90;;;;;;5076683;28;20020;-74
2021/03/02 06:47:31;;;;;;;40.88;13.70;;;1.40;99.90;;;;;;5094802;28;20023;-75
2021/03/02 06:49:56;;;;;;;36.75;12.40;;;1.50;99.90;;;;;;5094220;28;20020;-75
2021/03/02 06:52:22;;;;;;;44.55;14.60;;;1.50;99.90;;;;;;5093857;28;20051;-75
2021/03/02 06:54:49;;;;;;;51.60;15.18;;;1.60;99.90;;;;;;5075561;28;20024;-75
2021/03/02 06:57:22;;;;;;;37.88;11.68;;;1.60;99.90;;;;;;5076133;28;20443;-76
2021/03/02 06:59:56;;;;;;;38.53;12.63;;;1.60;99.90;;;;;;5076557;28;20016;-77
2021/03/02 07:02:45;;;;;;;38.00;12.93;;;1.70;99.90;;;;;;5094922;28;20101;-76
2021/03/02 07:05:18;;;;;;;39.83;12.98;;;1.70;99.90;;;;;;5076092;28;20130;-76
2021/03/02 07:07:54;;;;;;;41.67;13.90;;;1.80;99.90;;;;;;5093781;28;20020;-76
2021/03/02 07:10:20;;;;;;;42.25;13.45;;;1.80;99.90;;;;;;5072482;28;20370;-74
2021/03/02 07:12:47;;;;;;;43.20;13.32;;;1.90;99.90;;;;;;5074203;28;20024;-74
2021/03/02 07:15:17;;;;;;;38.45;12.07;;;1.90;99.90;;;;;;5073654;28;20037;-75
2021/03/02 07:18:13;;;;;;;37.08;12.15;;;1.90;99.90;;;;;;5132190;22;20112;-79
2021/03/02 07:20:46;;;;;;;39.67;12.57;;;2.90;99.90;;;;;;5077230;28;20028;-78
2021/03/02 07:23:12;;;;;;;41.67;13.45;;;1.80;99.90;;;;;;5078019;28;20537;-76
2021/03/02 07:25:42;;;;;;;41.17;14.30;;;2.10;99.90;;;;;;5076900;28;20546;-77
2021/03/02 07:28:08;;;;;;;40.90;12.32;;;4.10;99.90;;;;;;5096570;28;20046;-79
2021/03/02 07:30:34;;;;;;;42.90;12.32;;;2.30;99.90;;;;;;5076668;28;20477;-79
2021/03/02 07:33:01;;;;;;;39.17;12.23;;;2.40;99.90;;;;;;5095405;28;20489;-79
2021/03/02 07:35:36;;;;;;;40.67;12.10;;;2.50;99.90;;;;;;5079572;28;20020;-77
2021/03/02 07:38:11;;;;;;;41.08;12.90;;;2.60;99.90;;;;;;5080952;28;20028;-77
2021/03/02 07:40:45;;;;;;;36.75;11.95;;;2.70;99.90;;;;;;5076938;28;20023;-79
2021/03/02 07:43:32;;;;;;;38.50;11.45;;;2.80;99.90;;;;;;5077524;28;20486;-80
2021/03/02 07:45:59;;;;;;;36.63;12.80;;;2.90;99.90;;;;;;5076353;28;20024;-77
2021/03/02 07:48:36;;;;;;;36.50;12.07;;;3.00;99.90;;;;;;5094160;28;20051;-78
2021/03/02 07:51:15;;;;;;;37.67;12.10;;;3.10;99.90;;;;;;5076600;28;20028;-77
2021/03/02 07:53:41;;;;;;;34.50;11.65;;;3.20;99.90;;;;;;5075482;28;20046;-77
2021/03/02 07:56:12;;;;;;;36.25;12.85;;;3.30;99.90;;;;;;5095005;28;20016;-76
2021/03/02 07:58:41;;;;;;;34.38;11.73;;;3.40;99.90;;;;;;5095125;28;20020;-81
2021/03/02 08:01:20;;;;;;;33.60;11.18;;;3.50;99.90;;;;;;5076911;28;20058;-77
2021/03/02 08:03:46;;;;;;;36.35;12.10;;;3.70;99.90;;;;;;5094507;28;20024;-80
2021/03/02 08:06:29;;;;;;;29.85;10.80;;;3.80;99.90;;;;;;5076850;28;20020;-78
2021/03/02 08:08:55;;;;;;;31.98;11.27;;;3.90;99.90;;;;;;5094715;28;20031;-78
2021/03/02 08:11:29;;;;;;;29.27;10.55;;;4.00;99.90;;;;;;5094721;28;20024;-80
2021/03/02 08:13:55;;;;;;;32.10;11.23;;;4.10;99.90;;;;;;5094346;28;20145;-80
2021/03/02 08:16:52;;;;;;;32.08;11.68;;;4.20;99.90;;;;;;5076919;28;20024;-78
2021/03/02 08:19:33;;;;;;;31.15;11.35;;;4.40;99.90;;;;;;5094832;28;20112;-80
2021/03/02 08:21:59;;;;;;;31.45;10.63;;;4.50;99.90;;;;;;5095840;28;20059;-77
2021/03/02 08:24:50;;;;;;;26.20;10.25;;;4.70;99.90;;;;;;5095985;28;20046;-78
2021/03/02 08:27:46;;;;;;;25.92;9.35;;;4.80;99.90;;;;;;5076490;28;20042;-78
2021/03/02 08:30:14;;;;;;;30.38;10.65;;;4.90;99.90;;;;;;5057605;28;20036;-78
2021/03/02 08:32:41;;;;;;;23.67;10.00;;;5.10;99.90;;;;;;5076697;28;20022;-76
2021/03/02 08:35:10;;;;;;;23.27;9.48;;;5.30;99.90;;;;;;5095260;28;20040;-79
2021/03/02 08:37:43;;;;;;;22.60;9.13;;;5.40;99.90;;;;;;5094752;28;20478;-80
2021/03/02 08:40:13;;;;;;;19.45;8.68;;;5.60;99.90;;;;;;5076556;28;20428;-79
2021/03/02 08:42:59;;;;;;;26.25;10.05;;;5.80;99.90;;;;;;5095423;28;20098;-76
2021/03/02 08:45:28;;;;;;;27.20;9.90;;;6.00;99.90;;;;;;5096171;28;20020;-79
2021/03/02 08:48:26;;;;;;;22.77;8.68;;;6.10;99.90;;;;;;5095270;28;20472;-76
2021/03/02 08:50:55;;;;;;;21.85;8.40;;;6.20;99.90;;;;;;5094209;28;20555;-79
2021/03/02 08:53:29;;;;;;;21.35;8.45;;;6.50;99.90;;;;;;5077270;28;20019;-77
2021/03/02 08:55:54;;;;;;;23.48;9.20;;;6.60;99.90;;;;;;5094514;28;20020;-76
2021/03/02 08:58:32;;;;;;;20.63;7.15;;;6.80;99.90;;;;;;5121120;22;20401;-77
2021/03/02 09:01:00;;;;;;;19.00;7.90;;;6.90;99.90;;;;;;5113961;28;20027;-78
2021/03/02 09:03:25;;;;;;;19.10;7.17;;;7.00;99.90;;;;;;5115580;28;20031;-75
2021/03/02 09:06:12;;;;;;;19.98;7.38;;;7.20;99.90;;;;;;5114996;28;20028;-76
2021/03/02 09:09:05;;;;;;;17.60;7.53;;;7.30;99.90;;;;;;5124363;22;20521;-77
2021/03/02 09:11:32;;;;;;;22.58;7.80;;;7.50;99.90;;;;;;5140482;22;20056;-79
2021/03/02 09:14:00;;;;;;;16.58;6.55;;;7.70;99.90;;;;;;5086089;22;20037;-76
2021/03/02 09:19:17;;;;;;;16.08;6.53;;;8.00;99.90;;;;;;5251921;22;20030;-77
2021/03/02 09:22:04;;;;;;;16.23;5.88;;;8.20;99.90;;;;;;5093886;23;20450;-77
2021/03/02 09:27:03;;;;;;;13.50;5.97;;;8.50;99.90;;;;;;5104459;23;20056;-75
2021/03/02 09:29:33;;;;;;;12.80;4.93;;;8.60;99.90;;;;;;5100935;28;20571;-78
2021/03/02 09:32:00;;;;;;;14.85;5.57;;;8.80;99.90;;;;;;5098856;28;20045;-76
2021/03/02 09:34:45;;;;;;;14.82;5.97;;;8.90;99.90;;;;;;5097942;28;20027;-78
2021/03/02 09:37:13;;;;;;;14.45;5.95;;;9.10;99.90;;;;;;5093356;22;20141;-75
2021/03/02 09:39:42;;;;;;;12.10;5.70;;;9.30;98.60;;;;;;5075944;28;20151;-76
2021/03/02 09:42:21;;;;;;;15.45;6.18;;;9.30;98.40;;;;;;5076416;28;20035;-75
2021/03/02 09:44:52;;;;;;;13.90;5.15;;;9.40;95.60;;;;;;5076737;28;20134;-77
2021/03/02 09:47:26;;;;;;;11.88;5.07;;;9.60;94.70;;;;;;5117585;22;20049;-74
2021/03/02 09:50:07;;;;;;;12.57;5.07;;;9.70;93.50;;;;;;5076532;28;20452;-74
2021/03/02 09:52:50;;;;;;;11.80;4.47;;;9.80;93.00;;;;;;5078056;23;20044;-78
2021/03/02 09:55:19;;;;;;;12.05;5.07;;;10.00;91.90;;;;;;5074141;28;20032;-77
2021/03/02 09:58:13;;;;;;;20.02;5.72;;;10.10;91.80;;;;;;5075031;28;20107;-75
2021/03/02 10:00:45;;;;;;;14.10;5.13;;;10.10;91.00;;;;;;5075317;28;20490;-75
2021/03/02 10:03:15;;;;;;;14.57;6.07;;;10.20;90.70;;;;;;5061549;28;20029;-75
2021/03/02 10:05:58;;;;;;;28.10;6.45;;;10.20;91.20;;;;;;5090434;22;20143;-75
2021/03/02 10:08:25;;;;;;;12.95;5.10;;;10.50;91.10;;;;;;5118711;22;20127;-75
2021/03/02 10:11:00;;;;;;;11.70;4.82;;;10.50;90.10;;;;;;5100533;28;20512;-74
2021/03/02 10:13:34;;;;;;;12.38;5.30;;;10.70;89.10;;;;;;5094455;28;20028;-75
2021/03/02 10:16:21;;;;;;;13.27;5.47;;;10.80;88.30;;;;;;5090702;28;20389;-76
2021/03/02 10:19:05;;;;;;;20.52;5.95;;;10.90;88.20;;;;;;5109730;28;20024;-76
2021/03/02 10:21:47;;;;;;;14.75;5.82;;;11.00;86.30;;;;;;5095204;28;20115;-79
2021/03/02 10:24:27;;;;;;;13.95;5.20;;;11.20;85.20;;;;;;5095501;28;20504;-76
2021/03/02 10:26:58;;;;;;;12.23;4.88;;;11.30;84.70;;;;;;5096154;28;20408;-75
2021/03/02 10:29:25;;;;;;;10.30;4.97;;;11.40;82.50;;;;;;5095739;28;20027;-75
2021/03/02 10:31:52;;;;;;;13.70;5.18;;;11.50;82.60;;;;;;5096396;28;20024;-76
2021/03/02 10:34:18;;;;;;;10.00;4.07;;;11.70;82.00;;;;;;5094436;28;20016;-76
2021/03/02 10:36:51;;;;;;;10.20;4.70;;;12.70;80.00;;;;;;5094686;28;20016;-77
2021/03/02 10:39:16;;;;;;;9.40;3.78;;;11.90;80.30;;;;;;5094094;28;20028;-76
2021/03/02 10:41:43;;;;;;;10.18;3.70;;;12.00;79.50;;;;;;5103099;22;20067;-76
2021/03/02 10:44:11;;;;;;;8.05;3.90;;;12.10;77.40;;;;;;5075609;28;20049;-76
2021/03/02 10:46:37;;;;;;;9.43;4.50;;;12.20;74.00;;;;;;5103056;22;20186;-77
2021/03/02 10:51:32;;;;;;;7.53;3.00;;;12.20;73.00;;;;;;5114097;28;20039;-76
2021/03/02 10:53:58;;;;;;;11.07;4.10;;;14.40;75.30;;;;;;5114555;28;20059;-76
2021/03/02 10:56:24;;;;;;;7.90;3.70;;;12.10;73.00;;;;;;5115743;28;20406;-79
2021/03/02 10:58:50;;;;;;;8.82;3.92;;;12.30;72.40;;;;;;5115510;28;20055;-77
2021/03/02 11:01:20;;;;;;;10.23;4.82;;;12.40;73.10;;;;;;5103037;28;20509;-78
2021/03/02 11:03:47;;;;;;;9.52;3.83;;;12.40;73.10;;;;;;5082272;28;20028;-77
2021/03/02 11:06:21;;;;;;;11.10;4.88;;;13.80;74.10;;;;;;5096983;28;20058;-76
2021/03/02 11:08:48;;;;;;;10.38;4.05;;;14.90;73.80;;;;;;5095575;28;20021;-77
2021/03/02 11:11:15;;;;;;;11.93;4.68;;;12.80;71.60;;;;;;5097098;28;20023;-77
2021/03/02 11:13:41;;;;;;;9.95;4.25;;;13.00;70.30;;;;;;5105318;28;20020;-76
2021/03/02 11:16:08;;;;;;;13.35;4.50;;;13.10;70.20;;;;;;5096335;28;20024;-76
2021/03/02 11:21:05;;;;;;;8.90;3.97;;;14.90;70.90;;;;;;5085138;28;20170;-75
2021/03/02 11:23:38;;;;;;;7.85;3.50;;;13.40;71.30;;;;;;5076031;28;20020;-77
2021/03/02 11:26:04;;;;;;;9.82;4.45;;;13.00;67.80;;;;;;5059235;28;20359;-75
2021/03/02 11:28:29;;;;;;;10.38;4.28;;;13.80;70.60;;;;;;5054747;28;20027;-76
2021/03/02 11:30:55;;;;;;;9.52;4.30;;;15.50;70.60;;;;;;5057880;28;20115;-75
2021/03/02 11:33:27;;;;;;;7.47;3.55;;;14.00;68.50;;;;;;5056614;28;20020;-75
2021/03/02 11:35:53;;;;;;;9.45;3.72;;;15.70;68.80;;;;;;5074447;28;20024;-77
2021/03/02 11:38:19;;;;;;;10.02;4.20;;;14.30;65.50;;;;;;5074191;28;20141;-75
2021/03/02 11:40:44;;;;;;;9.48;4.00;;;16.10;66.90;;;;;;5073993;28;20131;-75
2021/03/02 11:43:10;;;;;;;12.52;4.65;;;14.30;63.20;;;;;;5074422;28;20032;-74
2021/03/02 11:45:37;;;;;;;8.20;3.70;;;14.50;63.60;;;;;;5069633;22;20020;-76
2021/03/02 11:48:05;;;;;;;11.93;4.18;;;14.40;62.90;;;;;;5023702;28;20053;-75
2021/03/02 11:50:32;;;;;;;11.98;4.05;;;14.60;64.50;;;;;;5033177;28;20479;-77
2021/03/02 11:52:58;;;;;;;7.15;3.70;;;14.70;63.50;;;;;;5020827;28;20026;-75
2021/03/02 11:55:23;;;;;;;11.70;4.80;;;14.90;64.00;;;;;;5010290;28;20024;-75
2021/03/02 11:57:49;;;;;;;7.78;3.83;;;15.10;63.20;;;;;;5019769;28;20080;-79
2021/03/02 12:00:17;;;;;;;7.63;3.67;;;15.30;63.10;;;;;;5004211;28;20026;-77
2021/03/02 12:02:47;;;;;;;14.82;4.70;;;15.40;60.10;;;;;;5015522;28;20022;-79
2021/03/02 12:05:14;;;;;;;13.18;4.65;;;15.50;61.40;;;;;;5023179;28;20468;-77
2021/03/02 12:07:40;;;;;;;8.13;3.70;;;15.50;61.20;;;;;;5016294;28;20025;-77
2021/03/02 12:10:09;;;;;;;8.48;4.60;;;15.70;60.80;;;;;;5032346;28;20387;-76
2021/03/02 12:12:34;;;;;;;7.13;3.58;;;15.90;60.00;;;;;;5032795;28;20390;-76
2021/03/02 12:15:01;;;;;;;8.15;3.88;;;16.10;59.70;;;;;;5032947;28;20108;-75
2021/03/02 12:17:29;;;;;;;18.13;4.90;;;16.20;57.40;;;;;;5014931;28;20026;-76
2021/03/02 12:19:55;;;;;;;;;;;16.30;57.40;;;;;;5017346;28;20053;-77
2021/03/02 12:22:20;;;;;;;9.70;3.97;;;16.40;57.80;;;;;;5014337;28;19909;-76
2021/03/02 12:24:46;;;;;;;10.50;4.32;;;16.70;57.80;;;;;;5013479;28;20029;-75
2021/03/02 12:27:11;;;;;;;9.00;3.97;;;16.90;57.20;;;;;;4997045;28;20492;-76
2021/03/02 12:29:37;;;;;;;8.50;3.55;;;17.00;55.80;;;;;;4995373;28;20076;-75
2021/03/02 12:32:03;;;;;;;7.82;3.13;;;17.30;56.00;;;;;;5012985;28;20030;-76
2021/03/02 12:34:28;;;;;;;7.38;3.47;;;17.40;54.10;;;;;;5024054;28;20026;-76
2021/03/02 12:36:55;;;;;;;9.73;3.42;;;17.40;51.80;;;;;;5015113;28;20025;-77
2021/03/02 12:39:21;;;;;;;11.60;4.43;;;17.50;54.20;;;;;;5022522;28;20026;-75
2021/03/02 12:41:47;;;;;;;9.43;3.30;;;17.60;53.30;;;;;;5016990;28;20037;-77
2021/03/02 12:44:12;;;;;;;10.18;4.28;;;17.90;52.20;;;;;;4999363;28;20026;-75
2021/03/02 12:46:38;;;;;;;9.65;3.58;;;18.00;52.20;;;;;;5029283;28;20083;-76
2021/03/02 12:49:04;;;;;;;11.18;4.07;;;18.10;51.70;;;;;;5010341;28;20025;-75
2021/03/02 12:51:29;;;;;;;10.75;4.07;;;18.30;51.00;;;;;;5016749;28;20030;-76
2021/03/02 12:53:55;;;;;;;10.55;4.68;;;18.30;49.00;;;;;;5016786;28;20030;-76
2021/03/02 12:56:21;;;;;;;7.90;3.53;;;18.30;51.00;;;;;;5017178;28;20018;-75
2021/03/02 12:58:47;;;;;;;10.27;3.35;;;18.40;50.40;;;;;;5017897;28;20548;-75
2021/03/02 13:01:14;;;;;;;11.48;4.60;;;18.50;50.20;;;;;;5032615;28;20029;-75
2021/03/02 13:03:43;;;;;;;8.95;4.05;;;18.60;48.70;;;;;;5036485;28;20083;-78